Ailine Elizabeth — WCX4766 — position and weather

sailwx.info

Track history (hours):
 
Tides and Currents Weather Stations Pressure Air Temp Water Temp Dewpoint Dewpoint Depression Visibility Wind Speed Wind Dir Waves Ship Positions

Ailine Elizabeth

Owner: MARINE EXPRESS INC, Pittsburg, CA. More information available from US FCC via Universal Licensing System and Coast Guard Vessel Documentation Center.

Last reported at 2018-Feb-20 19:30 UTC. Time now 2018-Feb-20 19:32 UTC.
Position N 37°43' W 122°20'.

Length 25 m; draft 2 m.

MMSI: 367179250.

Date/timePositionNaut miles runAvg speedWind from/ knotsBaromVisibWave heightAir tempDewpointWater temp
2018-Feb-20 19:30N 37°43' W 122°20'1 1.5
2018-Feb-20 19:00N 37°44' W 122°21'1 1.8
2018-Feb-20 18:30N 37°44' W 122°20'4 7.5
2018-Feb-20 18:01N 37°47' W 122°17'0 0.0
2018-Feb-19 05:31N 37°47' W 122°17'0 0.6
2018-Feb-19 05:31N 37°47' W 122°17'0 0.0
2018-Feb-19 05:00N 37°47' W 122°17'1 1.3
2018-Feb-19 04:30N 37°48' W 122°18'3 6.7
2018-Feb-19 04:00N 37°45' W 122°21'3 5.5
2018-Feb-19 03:30N 37°47' W 122°23'0 0.0
2018-Feb-19 03:00N 37°47' W 122°23'0 0.0
2018-Feb-19 02:30N 37°47' W 122°23'0 0.0
2018-Feb-19 02:00N 37°47' W 122°23'0 0.0
2018-Feb-19 01:30N 37°47' W 122°23'0 0.0
2018-Feb-19 01:00N 37°47' W 122°23'0 0.0
2018-Feb-19 00:30N 37°47' W 122°23'0 0.0
2018-Feb-19 00:00N 37°47' W 122°23'3 6.7
2018-Feb-18 23:30N 37°48' W 122°19'3 5.4
2018-Feb-18 23:01N 37°46' W 122°22'3 5.8
2018-Feb-18 22:31N 37°48' W 122°19'1 0.4
2018-Feb-18 19:24N 37°47' W 122°17'3 7.9
2018-Feb-18 19:00N 37°45' W 122°20'1 2.3
2018-Feb-18 18:28N 37°44' W 122°20'4 8.9
2018-Feb-18 18:01N 37°48' W 122°18'0 0.4
2018-Feb-18 17:30N 37°47' W 122°17'3 6.6
2018-Feb-18 17:01N 37°46' W 122°21'3 6.6
2018-Feb-18 16:30N 37°48' W 122°17'1 0.1
2018-Feb-18 09:59N 37°48' W 122°18'2 4.0
2018-Feb-18 09:30N 37°47' W 122°21'3 5.2
2018-Feb-18 09:01N 37°47' W 122°17'4 7.7
2018-Feb-18 08:30N 37°45' W 122°21'0 0.3
2018-Feb-18 08:00N 37°45' W 122°21'0 0.8
2018-Feb-18 07:30N 37°45' W 122°21'2 3.7
2018-Feb-18 07:00N 37°47' W 122°21'3 5.6
2018-Feb-18 06:31N 37°48' W 122°18'0 0.9
2018-Feb-18 06:00N 37°47' W 122°17'0 0.0
2018-Feb-17 23:44N 37°47' W 122°17'2 8.9
2018-Feb-17 23:31N 37°48' W 122°20'2 3.8
2018-Feb-17 23:00N 37°46' W 122°21'2 3.8
2018-Feb-17 22:30N 37°48' W 122°20'2 3.9
2018-Feb-17 22:00N 37°47' W 122°17'0 0.0
2018-Feb-17 21:30N 37°47' W 122°17'1 2.1
2018-Feb-17 21:00N 37°48' W 122°19'3 5.0
2018-Feb-17 20:30N 37°45' W 122°20'3 5.2
2018-Feb-17 20:00N 37°48' W 122°18'0 0.1
2018-Feb-17 14:27N 37°48' W 122°18'3 6.3
2018-Feb-17 14:00N 37°46' W 122°21'2 3.7
2018-Feb-17 13:31N 37°47' W 122°23'0 0.0
2018-Feb-17 13:00N 37°47' W 122°23'2 3.7
2018-Feb-17 12:30N 37°46' W 122°21'3 6.3
2018-Feb-17 12:00N 37°47' W 122°17'0 0.2
2018-Feb-17 09:51N 37°48' W 122°18'3 8.2
2018-Feb-17 09:30N 37°46' W 122°21'3 6.0
2018-Feb-17 09:00N 37°47' W 122°17'0 0.0
2018-Feb-17 05:08N 37°47' W 122°17'0 1.5
2018-Feb-17 05:00N 37°48' W 122°18'3 5.9
2018-Feb-17 04:30N 37°45' W 122°20'2 4.8
2018-Feb-17 04:01N 37°48' W 122°19'1 0.5
2018-Feb-17 01:09N 37°47' W 122°17'0 0.1
2018-Feb-17 01:00N 37°47' W 122°17'3 6.4
2018-Feb-17 00:30N 37°49' W 122°21'0 0.1
2018-Feb-17 00:00N 37°49' W 122°21'0 0.0
2018-Feb-16 23:30N 37°49' W 122°21'0 0.0
2018-Feb-16 23:00N 37°49' W 122°21'0 0.0
2018-Feb-16 22:30N 37°49' W 122°21'0 0.0
2018-Feb-16 22:00N 37°49' W 122°21'0 0.0
2018-Feb-16 21:30N 37°49' W 122°21'0 0.0
2018-Feb-16 21:00N 37°49' W 122°21'0 0.0
2018-Feb-16 20:30N 37°49' W 122°21'0 0.0
2018-Feb-16 20:00N 37°49' W 122°21'0 0.0
2018-Feb-16 19:30N 37°49' W 122°21'0 0.1
2018-Feb-16 19:00N 37°49' W 122°21'0 0.1
2018-Feb-16 18:30N 37°49' W 122°21'0 0.0
2018-Feb-16 18:00N 37°49' W 122°21'0 0.5
2018-Feb-16 17:30N 37°49' W 122°21'0 0.5
2018-Feb-16 17:00N 37°49' W 122°21'2 3.3
2018-Feb-16 16:30N 37°48' W 122°19'2 3.4
2018-Feb-16 16:00N 37°47' W 122°17'0 0.0
2018-Feb-16 15:30N 37°47' W 122°17'0 0.0
2018-Feb-15 23:10N 37°47' W 122°17'0 0.0
2018-Feb-15 23:00N 37°47' W 122°17'2 4.3
2018-Feb-15 22:30N 37°48' W 122°20'1 2.5
2018-Feb-15 22:00N 37°49' W 122°21'0 0.0
2018-Feb-15 21:30N 37°49' W 122°21'0 0.0
2018-Feb-15 21:00N 37°49' W 122°21'0 0.0
2018-Feb-15 20:30N 37°49' W 122°21'0 0.0
2018-Feb-15 20:00N 37°49' W 122°21'0 0.0
2018-Feb-15 19:30N 37°49' W 122°21'0 0.0
2018-Feb-15 19:00N 37°49' W 122°21'0 0.0
2018-Feb-15 18:30N 37°49' W 122°21'0 0.0
2018-Feb-15 18:00N 37°49' W 122°21'0 0.0
2018-Feb-15 17:30N 37°49' W 122°21'0 0.0
2018-Feb-15 17:00N 37°49' W 122°21'0 0.0
2018-Feb-15 16:30N 37°49' W 122°21'3 6.3
2018-Feb-15 16:00N 37°47' W 122°17'0 0.0
2018-Feb-15 15:31N 37°47' W 122°17'0 0.0
2018-Feb-14 18:36N 37°47' W 122°17'0 4.0
2018-Feb-14 18:30N 37°48' W 122°18'3 5.7
2018-Feb-14 18:00N 37°47' W 122°21'3 6.4
2018-Feb-14 17:30N 37°47' W 122°17'3 6.2
2018-Feb-14 17:00N 37°47' W 122°21'0 0.1
2018-Feb-14 16:30N 37°47' W 122°21'0 0.0
2018-Feb-14 16:00N 37°47' W 122°21'3 5.4
2018-Feb-14 15:30N 37°48' W 122°18'0 0.0
2018-Feb-13 02:53N 37°47' W 122°17'3 7.1
2018-Feb-13 02:30N 37°46' W 122°20'2 4.7
2018-Feb-13 02:00N 37°48' W 122°18'0 0.2
2018-Feb-13 00:05N 37°47' W 122°17'0 2.6
2018-Feb-13 00:00N 37°48' W 122°18'3 6.0
2018-Feb-12 23:30N 37°47' W 122°21'0 0.0
2018-Feb-12 23:00N 37°47' W 122°21'3 6.3
2018-Feb-12 22:30N 37°47' W 122°17'0 0.0
2018-Feb-12 22:00N 37°47' W 122°17'0 0.0
2018-Feb-12 21:30N 37°47' W 122°17'1 1.6
2018-Feb-12 21:00N 37°48' W 122°18'2 4.8
2018-Feb-12 20:30N 37°47' W 122°21'0 0.2
2018-Feb-12 20:00N 37°47' W 122°21'0 0.8
2018-Feb-12 19:30N 37°47' W 122°21'0 0.8
2018-Feb-12 19:00N 37°47' W 122°21'3 5.4
2018-Feb-12 18:30N 37°48' W 122°18'0 0.5
2018-Feb-12 18:00N 37°47' W 122°17'0 0.0
2018-Feb-12 17:30N 37°47' W 122°17'0 0.0
2018-Feb-12 17:00N 37°47' W 122°17'3 5.5
2018-Feb-12 16:30N 37°46' W 122°21'3 5.9
2018-Feb-12 16:01N 37°44' W 122°19'0 0.1
2018-Feb-12 15:31N 37°44' W 122°19'0 0.2
2018-Feb-12 15:00N 37°44' W 122°19'4 8.4
2018-Feb-12 14:30N 37°48' W 122°18'  
Track history (hours):
 
Tides and Currents Weather Stations Pressure Air Temp Water Temp Dewpoint Dewpoint Depression Visibility Wind Speed Wind Dir Waves Ship Positions

Ailine Elizabeth

Owner: MARINE EXPRESS INC, Pittsburg, CA. More information available from US FCC via Universal Licensing System and Coast Guard Vessel Documentation Center.

Last reported at 2018-Feb-20 19:30 UTC. Time now 2018-Feb-20 19:32 UTC.
Position N 37°43' W 122°20'.

Length 25 m; draft 2 m.

MMSI: 367179250.

Date/timePositionNaut miles runAvg speedWind from/ knotsBaromVisibWave heightAir tempDewpointWater temp
2018-Feb-20 19:30N 37°43' W 122°20'1 1.5
2018-Feb-20 19:00N 37°44' W 122°21'1 1.8
2018-Feb-20 18:30N 37°44' W 122°20'4 7.5
2018-Feb-20 18:01N 37°47' W 122°17'0 0.0
2018-Feb-19 05:31N 37°47' W 122°17'0 0.6
2018-Feb-19 05:31N 37°47' W 122°17'0 0.0
2018-Feb-19 05:00N 37°47' W 122°17'1 1.3
2018-Feb-19 04:30N 37°48' W 122°18'3 6.7
2018-Feb-19 04:00N 37°45' W 122°21'3 5.5
2018-Feb-19 03:30N 37°47' W 122°23'0 0.0
2018-Feb-19 03:00N 37°47' W 122°23'0 0.0
2018-Feb-19 02:30N 37°47' W 122°23'0 0.0
2018-Feb-19 02:00N 37°47' W 122°23'0 0.0
2018-Feb-19 01:30N 37°47' W 122°23'0 0.0
2018-Feb-19 01:00N 37°47' W 122°23'0 0.0
2018-Feb-19 00:30N 37°47' W 122°23'0 0.0
2018-Feb-19 00:00N 37°47' W 122°23'3 6.7
2018-Feb-18 23:30N 37°48' W 122°19'3 5.4
2018-Feb-18 23:01N 37°46' W 122°22'3 5.8
2018-Feb-18 22:31N 37°48' W 122°19'1 0.4
2018-Feb-18 19:24N 37°47' W 122°17'3 7.9
2018-Feb-18 19:00N 37°45' W 122°20'1 2.3
2018-Feb-18 18:28N 37°44' W 122°20'4 8.9
2018-Feb-18 18:01N 37°48' W 122°18'0 0.4
2018-Feb-18 17:30N 37°47' W 122°17'3 6.6
2018-Feb-18 17:01N 37°46' W 122°21'3 6.6
2018-Feb-18 16:30N 37°48' W 122°17'1 0.1
2018-Feb-18 09:59N 37°48' W 122°18'2 4.0
2018-Feb-18 09:30N 37°47' W 122°21'3 5.2
2018-Feb-18 09:01N 37°47' W 122°17'4 7.7
2018-Feb-18 08:30N 37°45' W 122°21'0 0.3
2018-Feb-18 08:00N 37°45' W 122°21'0 0.8
2018-Feb-18 07:30N 37°45' W 122°21'2 3.7
2018-Feb-18 07:00N 37°47' W 122°21'3 5.6
2018-Feb-18 06:31N 37°48' W 122°18'0 0.9
2018-Feb-18 06:00N 37°47' W 122°17'0 0.0
2018-Feb-17 23:44N 37°47' W 122°17'2 8.9
2018-Feb-17 23:31N 37°48' W 122°20'2 3.8
2018-Feb-17 23:00N 37°46' W 122°21'2 3.8
2018-Feb-17 22:30N 37°48' W 122°20'2 3.9
2018-Feb-17 22:00N 37°47' W 122°17'0 0.0
2018-Feb-17 21:30N 37°47' W 122°17'1 2.1
2018-Feb-17 21:00N 37°48' W 122°19'3 5.0
2018-Feb-17 20:30N 37°45' W 122°20'3 5.2
2018-Feb-17 20:00N 37°48' W 122°18'0 0.1
2018-Feb-17 14:27N 37°48' W 122°18'3 6.3
2018-Feb-17 14:00N 37°46' W 122°21'2 3.7
2018-Feb-17 13:31N 37°47' W 122°23'0 0.0
2018-Feb-17 13:00N 37°47' W 122°23'2 3.7
2018-Feb-17 12:30N 37°46' W 122°21'3 6.3
2018-Feb-17 12:00N 37°47' W 122°17'0 0.2
2018-Feb-17 09:51N 37°48' W 122°18'3 8.2
2018-Feb-17 09:30N 37°46' W 122°21'3 6.0
2018-Feb-17 09:00N 37°47' W 122°17'0 0.0
2018-Feb-17 05:08N 37°47' W 122°17'0 1.5
2018-Feb-17 05:00N 37°48' W 122°18'3 5.9
2018-Feb-17 04:30N 37°45' W 122°20'2 4.8
2018-Feb-17 04:01N 37°48' W 122°19'1 0.5
2018-Feb-17 01:09N 37°47' W 122°17'0 0.1
2018-Feb-17 01:00N 37°47' W 122°17'3 6.4
2018-Feb-17 00:30N 37°49' W 122°21'0 0.1
2018-Feb-17 00:00N 37°49' W 122°21'0 0.0
2018-Feb-16 23:30N 37°49' W 122°21'0 0.0
2018-Feb-16 23:00N 37°49' W 122°21'0 0.0
2018-Feb-16 22:30N 37°49' W 122°21'0 0.0
2018-Feb-16 22:00N 37°49' W 122°21'0 0.0
2018-Feb-16 21:30N 37°49' W 122°21'0 0.0
2018-Feb-16 21:00N 37°49' W 122°21'0 0.0
2018-Feb-16 20:30N 37°49' W 122°21'0 0.0
2018-Feb-16 20:00N 37°49' W 122°21'0 0.0
2018-Feb-16 19:30N 37°49' W 122°21'0 0.1
2018-Feb-16 19:00N 37°49' W 122°21'0 0.1
2018-Feb-16 18:30N 37°49' W 122°21'0 0.0
2018-Feb-16 18:00N 37°49' W 122°21'0 0.5
2018-Feb-16 17:30N 37°49' W 122°21'0 0.5
2018-Feb-16 17:00N 37°49' W 122°21'2 3.3
2018-Feb-16 16:30N 37°48' W 122°19'2 3.4
2018-Feb-16 16:00N 37°47' W 122°17'0 0.0
2018-Feb-16 15:30N 37°47' W 122°17'0 0.0
2018-Feb-15 23:10N 37°47' W 122°17'0 0.0
2018-Feb-15 23:00N 37°47' W 122°17'2 4.3
2018-Feb-15 22:30N 37°48' W 122°20'1 2.5
2018-Feb-15 22:00N 37°49' W 122°21'0 0.0
2018-Feb-15 21:30N 37°49' W 122°21'0 0.0
2018-Feb-15 21:00N 37°49' W 122°21'0 0.0
2018-Feb-15 20:30N 37°49' W 122°21'0 0.0
2018-Feb-15 20:00N 37°49' W 122°21'0 0.0
2018-Feb-15 19:30N 37°49' W 122°21'0 0.0
2018-Feb-15 19:00N 37°49' W 122°21'0 0.0
2018-Feb-15 18:30N 37°49' W 122°21'0 0.0
2018-Feb-15 18:00N 37°49' W 122°21'0 0.0
2018-Feb-15 17:30N 37°49' W 122°21'0 0.0
2018-Feb-15 17:00N 37°49' W 122°21'0 0.0
2018-Feb-15 16:30N 37°49' W 122°21'3 6.3
2018-Feb-15 16:00N 37°47' W 122°17'0 0.0
2018-Feb-15 15:31N 37°47' W 122°17'0 0.0
2018-Feb-14 18:36N 37°47' W 122°17'0 4.0
2018-Feb-14 18:30N 37°48' W 122°18'3 5.7
2018-Feb-14 18:00N 37°47' W 122°21'3 6.4
2018-Feb-14 17:30N 37°47' W 122°17'3 6.2
2018-Feb-14 17:00N 37°47' W 122°21'0 0.1
2018-Feb-14 16:30N 37°47' W 122°21'0 0.0
2018-Feb-14 16:00N 37°47' W 122°21'3 5.4
2018-Feb-14 15:30N 37°48' W 122°18'0 0.0
2018-Feb-13 02:53N 37°47' W 122°17'3 7.1
2018-Feb-13 02:30N 37°46' W 122°20'2 4.7
2018-Feb-13 02:00N 37°48' W 122°18'0 0.2
2018-Feb-13 00:05N 37°47' W 122°17'0 2.6
2018-Feb-13 00:00N 37°48' W 122°18'3 6.0
2018-Feb-12 23:30N 37°47' W 122°21'0 0.0
2018-Feb-12 23:00N 37°47' W 122°21'3 6.3
2018-Feb-12 22:30N 37°47' W 122°17'0 0.0
2018-Feb-12 22:00N 37°47' W 122°17'0 0.0
2018-Feb-12 21:30N 37°47' W 122°17'1 1.6
2018-Feb-12 21:00N 37°48' W 122°18'2 4.8
2018-Feb-12 20:30N 37°47' W 122°21'0 0.2
2018-Feb-12 20:00N 37°47' W 122°21'0 0.8
2018-Feb-12 19:30N 37°47' W 122°21'0 0.8
2018-Feb-12 19:00N 37°47' W 122°21'3 5.4
2018-Feb-12 18:30N 37°48' W 122°18'0 0.5
2018-Feb-12 18:00N 37°47' W 122°17'0 0.0
2018-Feb-12 17:30N 37°47' W 122°17'0 0.0
2018-Feb-12 17:00N 37°47' W 122°17'3 5.5
2018-Feb-12 16:30N 37°46' W 122°21'3 5.9
2018-Feb-12 16:01N 37°44' W 122°19'0 0.1
2018-Feb-12 15:31N 37°44' W 122°19'0 0.2
2018-Feb-12 15:00N 37°44' W 122°19'4 8.4
2018-Feb-12 14:30N 37°48' W 122°18'  

Dump ship's entire track history